createdAt,value
2023-01-29T00:00:10.810Z,4.32
2023-01-29T00:02:41.530Z,4.57
2023-01-29T00:05:26.474Z,4.20
2023-01-29T00:07:54.992Z,3.47
2023-01-29T00:10:22.963Z,3.90
2023-01-29T00:12:52.262Z,3.50
2023-01-29T00:15:21.049Z,3.22
2023-01-29T00:17:49.023Z,2.92
2023-01-29T00:20:17.698Z,2.75
2023-01-29T00:22:45.639Z,3.22
2023-01-29T00:25:13.408Z,3.08
2023-01-29T00:27:41.398Z,2.75
2023-01-29T00:30:13.059Z,2.58
2023-01-29T00:32:41.784Z,2.60
2023-01-29T00:35:10.350Z,2.63
2023-01-29T00:37:38.471Z,2.55
2023-01-29T00:40:06.905Z,2.58
2023-01-29T00:42:53.261Z,2.65
2023-01-29T00:45:21.153Z,2.08
2023-01-29T00:47:49.391Z,2.70
2023-01-29T00:50:17.694Z,2.00
2023-01-29T00:52:46.192Z,2.10
2023-01-29T00:55:14.209Z,2.15
2023-01-29T00:57:42.139Z,2.20
2023-01-29T01:00:12.972Z,1.98
2023-01-29T01:02:59.345Z,2.00
2023-01-29T01:05:28.178Z,2.03
2023-01-29T01:07:58.058Z,2.47
2023-01-29T01:10:32.485Z,1.90
2023-01-29T01:13:05.562Z,2.10
2023-01-29T01:15:40.114Z,2.67
2023-01-29T01:18:07.956Z,2.78
2023-01-29T01:20:36.929Z,3.80
2023-01-29T01:23:05.150Z,5.03
2023-01-29T01:25:33.296Z,4.82
2023-01-29T01:28:01.911Z,5.50
2023-01-29T01:30:33.345Z,4.80
2023-01-29T01:33:01.841Z,4.57
2023-01-29T01:35:29.943Z,4.63
2023-01-29T01:37:57.744Z,4.30
2023-01-29T01:40:26.993Z,4.10
2023-01-29T01:42:57.780Z,4.50
2023-01-29T01:45:34.806Z,4.28
2023-01-29T01:48:19.630Z,4.15
2023-01-29T01:50:56.971Z,4.00
2023-01-29T01:53:37.712Z,4.18
2023-01-29T01:56:25.270Z,3.90
2023-01-29T01:58:56.255Z,5.97
2023-01-29T02:01:30.764Z,13.10
2023-01-29T02:04:19.413Z,10.77
2023-01-29T02:07:06.596Z,9.18
2023-01-29T02:09:39.699Z,8.63
2023-01-29T02:12:11.611Z,8.57
2023-01-29T02:14:41.336Z,7.07
2023-01-29T02:17:12.419Z,5.95
2023-01-29T02:20:07.112Z,6.57
2023-01-29T02:23:02.648Z,6.55
2023-01-29T02:26:05.217Z,5.30
2023-01-29T02:29:23.400Z,5.25
2023-01-29T02:32:05.212Z,5.32
2023-01-29T02:35:12.146Z,5.07
2023-01-29T02:38:07.488Z,5.10
2023-01-29T02:41:16.921Z,4.15
2023-01-29T02:43:54.489Z,4.38
2023-01-29T02:46:25.623Z,4.18
2023-01-29T02:49:09.164Z,4.55
2023-01-29T02:51:45.021Z,3.92
2023-01-29T02:54:22.238Z,3.38
2023-01-29T02:56:59.430Z,3.10
2023-01-29T02:59:38.688Z,3.28
2023-01-29T03:02:11.291Z,3.13
2023-01-29T03:04:48.081Z,3.20
2023-01-29T03:07:45.026Z,3.33
2023-01-29T03:10:40.292Z,2.45
2023-01-29T03:13:20.432Z,2.45
2023-01-29T03:15:55.111Z,2.85
2023-01-29T03:19:20.270Z,2.50
2023-01-29T03:22:00.535Z,2.33
2023-01-29T03:25:04.505Z,2.58
2023-01-29T03:27:56.009Z,2.50
2023-01-29T03:30:45.011Z,2.25
2023-01-29T03:33:33.274Z,2.47
2023-01-29T03:36:09.614Z,2.53
2023-01-29T03:38:37.570Z,2.35
2023-01-29T03:41:38.919Z,2.10
2023-01-29T03:44:40.734Z,2.10
2023-01-29T03:47:27.277Z,2.28
2023-01-29T03:50:10.242Z,2.10
2023-01-29T03:53:11.836Z,2.13
2023-01-29T03:55:59.891Z,2.15
2023-01-29T03:58:57.564Z,2.15
2023-01-29T04:01:40.895Z,1.95
2023-01-29T04:04:19.008Z,2.05
2023-01-29T04:06:49.171Z,1.85
2023-01-29T04:09:28.338Z,2.10
2023-01-29T04:12:09.492Z,2.15
2023-01-29T04:14:40.153Z,1.92
2023-01-29T04:17:18.208Z,2.00
2023-01-29T04:19:54.805Z,1.90
2023-01-29T04:22:33.381Z,1.83
2023-01-29T04:25:09.761Z,2.05
2023-01-29T04:28:05.797Z,1.80
2023-01-29T04:30:40.773Z,1.73
2023-01-29T04:33:30.053Z,1.88
2023-01-29T04:36:26.293Z,2.10
2023-01-29T04:39:13.287Z,2.00
2023-01-29T04:41:51.917Z,1.70
2023-01-29T04:44:56.990Z,1.80
2023-01-29T04:47:34.074Z,1.35
2023-01-29T04:50:16.458Z,2.33
2023-01-29T04:53:08.118Z,1.70
2023-01-29T04:55:44.678Z,1.50
2023-01-29T04:58:22.349Z,1.60
2023-01-29T05:00:52.355Z,1.90
2023-01-29T05:03:22.169Z,1.88
2023-01-29T05:05:51.231Z,1.60
2023-01-29T05:08:21.326Z,1.48
2023-01-29T05:10:50.422Z,1.70
2023-01-29T05:13:19.674Z,1.40
2023-01-29T05:15:57.949Z,1.45
2023-01-29T05:18:25.905Z,1.77
2023-01-29T05:20:54.312Z,1.50
2023-01-29T05:23:23.392Z,1.90
2023-01-29T05:25:52.265Z,1.63
2023-01-29T05:28:20.090Z,1.40
2023-01-29T05:30:50.181Z,1.42
2023-01-29T05:33:21.179Z,1.30
2023-01-29T05:35:50.131Z,1.50
2023-01-29T05:38:18.563Z,1.30
2023-01-29T05:40:46.732Z,1.63
2023-01-29T05:43:19.516Z,1.50
2023-01-29T05:45:59.130Z,1.45
2023-01-29T05:48:29.143Z,1.83
2023-01-29T05:51:03.648Z,1.85
2023-01-29T05:53:32.121Z,1.45
2023-01-29T05:56:02.652Z,1.60
2023-01-29T05:58:32.048Z,1.60
2023-01-29T06:01:08.113Z,1.33
2023-01-29T06:03:36.007Z,1.60
2023-01-29T06:06:03.914Z,1.80
2023-01-29T06:08:33.055Z,1.50
2023-01-29T06:11:01.002Z,2.03
2023-01-29T06:13:29.246Z,1.92
2023-01-29T06:15:57.338Z,1.88
2023-01-29T06:18:25.234Z,2.40
2023-01-29T06:20:53.222Z,1.88
2023-01-29T06:23:20.981Z,1.73
2023-01-29T06:25:48.698Z,1.50
2023-01-29T06:28:16.477Z,1.80
2023-01-29T06:30:47.946Z,1.83
2023-01-29T06:33:18.891Z,1.52
2023-01-29T06:35:46.799Z,1.65
2023-01-29T06:38:14.699Z,1.90
2023-01-29T06:40:42.460Z,1.80
2023-01-29T06:43:10.243Z,1.60
2023-01-29T06:45:38.280Z,1.48
2023-01-29T06:48:06.317Z,1.70
2023-01-29T06:50:34.364Z,1.60
2023-01-29T06:53:05.561Z,1.70
2023-01-29T06:55:33.455Z,1.67
2023-01-29T06:58:05.042Z,1.63
2023-01-29T07:00:33.229Z,2.03
2023-01-29T07:03:01.077Z,1.48
2023-01-29T07:05:31.578Z,1.92
2023-01-29T07:07:59.421Z,1.50
2023-01-29T07:10:27.399Z,1.60
2023-01-29T07:12:55.255Z,1.58
2023-01-29T07:15:23.080Z,1.67
2023-01-29T07:17:58.707Z,1.73
2023-01-29T07:20:28.108Z,1.80
2023-01-29T07:22:59.021Z,1.83
2023-01-29T07:25:27.255Z,1.80
2023-01-29T07:27:55.303Z,1.30
2023-01-29T07:30:23.294Z,1.40
2023-01-29T07:32:51.286Z,1.50
2023-01-29T07:35:21.800Z,2.38
2023-01-29T07:37:52.466Z,1.45
2023-01-29T07:40:20.421Z,1.50
2023-01-29T07:42:48.227Z,1.50
2023-01-29T07:45:16.101Z,1.60
2023-01-29T07:47:46.881Z,1.40
2023-01-29T07:50:15.144Z,1.77
2023-01-29T07:52:43.389Z,1.75
2023-01-29T07:55:11.207Z,1.52
2023-01-29T07:57:38.891Z,1.58
2023-01-29T08:00:07.180Z,1.65
2023-01-29T08:02:40.925Z,1.50
2023-01-29T08:05:09.268Z,1.60
2023-01-29T08:07:37.194Z,1.55
2023-01-29T08:10:08.312Z,1.70
2023-01-29T08:12:36.095Z,1.67
2023-01-29T08:15:04.176Z,1.70
2023-01-29T08:17:32.058Z,1.80
2023-01-29T08:20:00.000Z,1.60
2023-01-29T08:22:28.007Z,1.67
2023-01-29T08:25:06.469Z,1.83
2023-01-29T08:27:36.276Z,1.65
2023-01-29T08:30:05.321Z,1.40
2023-01-29T08:32:33.282Z,1.60
2023-01-29T08:35:01.179Z,1.80
2023-01-29T08:37:29.110Z,1.60
2023-01-29T08:39:57.102Z,1.55
2023-01-29T08:42:24.919Z,1.65
2023-01-29T08:44:52.802Z,1.60
2023-01-29T08:47:20.682Z,1.60
2023-01-29T08:49:48.794Z,1.70
2023-01-29T08:52:16.544Z,1.90
2023-01-29T08:54:44.343Z,1.52
2023-01-29T08:57:12.233Z,1.63
2023-01-29T08:59:40.028Z,1.50
2023-01-29T09:02:08.959Z,1.35
2023-01-29T09:04:36.809Z,1.70
2023-01-29T09:07:04.773Z,2.13
2023-01-29T09:09:32.692Z,2.45
2023-01-29T09:12:00.469Z,1.90
2023-01-29T09:14:28.452Z,2.63
2023-01-29T09:17:00.919Z,1.95
2023-01-29T09:19:28.799Z,2.40
2023-01-29T09:21:56.939Z,2.33
2023-01-29T09:24:24.835Z,3.05
2023-01-29T09:26:52.905Z,2.50
2023-01-29T09:29:20.750Z,1.92
2023-01-29T09:31:48.562Z,2.20
2023-01-29T09:34:16.349Z,2.40
2023-01-29T09:36:44.250Z,2.33
2023-01-29T09:39:12.121Z,2.55
2023-01-29T09:41:42.923Z,3.03
2023-01-29T09:44:38.072Z,2.00
2023-01-29T09:47:08.730Z,2.42
2023-01-29T09:49:42.848Z,2.15
2023-01-29T09:52:26.812Z,2.73
2023-01-29T09:55:15.612Z,2.50
2023-01-29T09:57:55.238Z,2.50
2023-01-29T10:00:26.239Z,2.88
2023-01-29T10:03:40.482Z,2.60
2023-01-29T10:06:16.605Z,2.25
2023-01-29T10:08:47.264Z,2.13
2023-01-29T10:11:31.304Z,2.78
2023-01-29T10:14:20.405Z,2.58
2023-01-29T10:17:02.932Z,2.85
2023-01-29T10:20:17.631Z,3.88
2023-01-29T10:22:54.921Z,2.80
2023-01-29T10:25:23.575Z,3.20
2023-01-29T10:27:57.544Z,2.58
2023-01-29T10:30:42.565Z,2.63
2023-01-29T10:33:19.128Z,1.90
2023-01-29T10:35:55.365Z,2.28
2023-01-29T10:38:40.176Z,3.40
2023-01-29T10:41:10.912Z,2.67
2023-01-29T10:43:54.868Z,3.08
2023-01-29T10:46:50.794Z,2.75
2023-01-29T10:49:42.908Z,2.20
2023-01-29T10:52:27.520Z,2.50
2023-01-29T10:54:59.372Z,2.97
2023-01-29T10:57:52.484Z,2.20
2023-01-29T11:00:49.937Z,2.72
2023-01-29T11:03:29.612Z,3.17
2023-01-29T11:06:00.448Z,2.80
2023-01-29T11:08:35.480Z,2.45
2023-01-29T11:13:57.885Z,3.13
2023-01-29T11:16:26.627Z,3.15
2023-01-29T11:19:00.283Z,3.08
2023-01-29T11:21:29.296Z,3.40
2023-01-29T11:24:17.517Z,3.20
2023-01-29T11:26:48.731Z,3.92
2023-01-29T11:29:48.422Z,3.92
2023-01-29T11:32:26.634Z,3.25
2023-01-29T11:35:17.748Z,3.55
2023-01-29T11:37:49.034Z,3.92
2023-01-29T11:40:20.062Z,3.72
2023-01-29T11:42:48.361Z,3.33
2023-01-29T11:45:30.068Z,4.03
2023-01-29T11:47:58.695Z,4.10
2023-01-29T11:50:32.466Z,3.65
2023-01-29T11:53:01.609Z,3.55
2023-01-29T11:55:49.796Z,4.03
2023-01-29T11:58:28.095Z,3.38
2023-01-29T12:00:56.934Z,4.60
2023-01-29T12:03:48.679Z,2.97
2023-01-29T12:06:25.343Z,4.00
2023-01-29T12:09:00.910Z,3.72
2023-01-29T12:11:33.910Z,4.25
2023-01-29T12:14:04.145Z,3.78
2023-01-29T12:16:47.014Z,4.07
2023-01-29T12:19:27.123Z,3.95
2023-01-29T12:22:09.226Z,4.03
2023-01-29T12:24:52.227Z,4.93
2023-01-29T12:27:49.215Z,3.60
2023-01-29T12:30:26.384Z,3.60
2023-01-29T12:33:26.687Z,4.80
2023-01-29T12:36:15.100Z,3.80
2023-01-29T12:38:45.473Z,4.80
2023-01-29T12:41:22.417Z,4.55
2023-01-29T12:44:19.448Z,4.28
2023-01-29T12:46:56.942Z,4.10
2023-01-29T12:49:28.407Z,4.20
2023-01-29T12:52:04.915Z,4.00
2023-01-29T12:54:56.590Z,4.72
2023-01-29T12:57:32.867Z,4.80
2023-01-29T13:00:16.301Z,3.83
2023-01-29T13:02:57.113Z,3.78
2023-01-29T13:05:29.660Z,5.50
2023-01-29T13:08:29.727Z,6.78
2023-01-29T13:11:01.141Z,8.90
2023-01-29T13:13:36.481Z,12.20
2023-01-29T13:16:09.500Z,13.68
2023-01-29T13:18:55.159Z,15.35
2023-01-29T13:21:27.606Z,14.88
2023-01-29T13:24:02.630Z,15.25
2023-01-29T13:28:59.825Z,13.25
2023-01-29T13:31:39.236Z,12.98
2023-01-29T13:34:21.978Z,12.27
2023-01-29T13:36:56.485Z,10.50
2023-01-29T13:39:34.063Z,11.13
2023-01-29T13:42:04.605Z,9.05
2023-01-29T13:44:38.538Z,8.32
2023-01-29T13:47:11.653Z,8.23
2023-01-29T13:49:53.142Z,8.20
2023-01-29T13:52:43.519Z,8.27
2023-01-29T13:55:14.543Z,6.75
2023-01-29T13:57:46.180Z,7.20
2023-01-29T14:00:25.206Z,6.90
2023-01-29T14:02:56.500Z,6.35
2023-01-29T14:05:32.769Z,5.50
2023-01-29T14:08:02.468Z,6.20
2023-01-29T14:10:31.677Z,5.75
2023-01-29T14:13:05.388Z,5.90
2023-01-29T14:15:35.299Z,6.32
2023-01-29T14:18:06.330Z,5.55
2023-01-29T14:20:45.546Z,6.00
2023-01-29T14:23:36.868Z,5.15
2023-01-29T14:26:23.875Z,7.93
2023-01-29T14:29:25.577Z,5.10
2023-01-29T14:32:07.517Z,7.68
2023-01-29T14:34:43.372Z,7.50
2023-01-29T14:37:17.397Z,8.23
2023-01-29T14:39:52.383Z,7.72
2023-01-29T14:45:28.397Z,7.93
2023-01-29T14:48:19.350Z,8.32
2023-01-29T14:50:48.993Z,7.05
2023-01-29T14:53:40.493Z,7.03
2023-01-29T14:56:40.160Z,6.30
2023-01-29T14:59:47.894Z,6.32
2023-01-29T15:02:20.790Z,5.93
2023-01-29T15:04:57.528Z,5.32
2023-01-29T15:07:33.449Z,5.80
2023-01-29T15:10:23.026Z,4.50
2023-01-29T15:13:17.073Z,4.68
2023-01-29T15:15:48.518Z,4.85
2023-01-29T15:18:40.261Z,3.85
2023-01-29T15:21:16.186Z,5.65
2023-01-29T15:23:44.995Z,4.38
2023-01-29T15:26:18.771Z,4.05
2023-01-29T15:29:03.864Z,4.20
2023-01-29T15:34:06.620Z,4.60
2023-01-29T15:36:34.678Z,3.35
2023-01-29T15:39:23.009Z,3.60
2023-01-29T15:42:16.708Z,3.88
2023-01-29T15:44:47.669Z,3.88
2023-01-29T15:47:16.468Z,3.25
2023-01-29T15:49:47.980Z,3.30
2023-01-29T15:52:26.488Z,3.38
2023-01-29T15:54:55.321Z,3.00
2023-01-29T15:57:31.846Z,2.15
2023-01-29T16:00:00.198Z,2.80
2023-01-29T16:02:38.536Z,3.97
2023-01-29T16:05:15.793Z,2.85
2023-01-29T16:07:44.885Z,2.40
2023-01-29T16:10:24.997Z,3.58
2023-01-29T16:12:53.405Z,2.75
2023-01-29T16:15:40.985Z,2.45
2023-01-29T16:18:29.026Z,2.40
2023-01-29T16:20:58.130Z,2.67
2023-01-29T16:23:31.525Z,2.75
2023-01-29T16:26:05.663Z,2.88
2023-01-29T16:28:33.739Z,2.78
2023-01-29T16:31:04.298Z,2.35
2023-01-29T16:33:35.907Z,2.90
2023-01-29T16:36:06.281Z,2.35
2023-01-29T16:38:35.944Z,3.13
2023-01-29T16:41:14.495Z,3.05
2023-01-29T16:43:46.302Z,2.30
2023-01-29T16:46:25.401Z,2.03
2023-01-29T16:48:53.891Z,2.25
2023-01-29T16:51:36.716Z,1.90
2023-01-29T16:54:17.803Z,2.15
2023-01-29T16:56:47.826Z,2.35
2023-01-29T16:59:34.848Z,2.67
2023-01-29T17:02:03.341Z,2.22
2023-01-29T17:04:31.214Z,2.03
2023-01-29T17:07:01.122Z,2.33
2023-01-29T17:09:34.222Z,2.42
2023-01-29T17:12:05.313Z,2.00
2023-01-29T17:14:34.505Z,2.05
2023-01-29T17:17:05.414Z,2.55
2023-01-29T17:19:33.524Z,2.00
2023-01-29T17:22:06.189Z,2.30
2023-01-29T17:24:33.896Z,2.95
2023-01-29T17:27:02.629Z,2.20
2023-01-29T17:29:31.768Z,2.05
2023-01-29T17:32:02.339Z,2.05
2023-01-29T17:34:30.028Z,2.05
2023-01-29T17:36:57.753Z,2.47
2023-01-29T17:39:25.883Z,2.25
2023-01-29T17:42:01.544Z,2.65
2023-01-29T17:44:29.366Z,2.47
2023-01-29T17:46:57.938Z,1.80
2023-01-29T17:49:30.100Z,2.10
2023-01-29T17:51:58.108Z,3.00
2023-01-29T17:54:26.138Z,3.90
2023-01-29T17:56:54.466Z,3.42
2023-01-29T17:59:24.581Z,3.25
2023-01-29T18:01:53.336Z,2.58
2023-01-29T18:04:21.243Z,3.20
2023-01-29T18:06:50.759Z,2.83
2023-01-29T18:09:23.300Z,3.38
2023-01-29T18:11:51.746Z,3.17
2023-01-29T18:14:19.580Z,3.10
2023-01-29T18:16:47.520Z,2.47
2023-01-29T18:19:17.144Z,2.90
2023-01-29T18:21:45.133Z,2.63
2023-01-29T18:24:13.065Z,2.95
2023-01-29T18:26:41.065Z,2.38
2023-01-29T18:29:09.297Z,2.42
2023-01-29T18:31:37.155Z,3.15
2023-01-29T18:34:05.117Z,2.55
2023-01-29T18:36:33.227Z,2.05
2023-01-29T18:39:01.233Z,2.20
2023-01-29T18:41:29.077Z,2.45
2023-01-29T18:43:56.791Z,4.35
2023-01-29T18:46:24.521Z,3.22
2023-01-29T18:48:57.507Z,4.68
2023-01-29T18:51:25.270Z,3.80
2023-01-29T18:53:53.306Z,2.90
2023-01-29T18:56:21.519Z,3.35
2023-01-29T18:58:52.634Z,3.42
2023-01-29T19:01:23.999Z,3.55
2023-01-29T19:03:52.692Z,3.15
2023-01-29T19:06:23.416Z,4.45
2023-01-29T19:08:51.437Z,2.92
2023-01-29T19:11:19.255Z,2.45
2023-01-29T19:13:48.267Z,2.78
2023-01-29T19:16:16.137Z,3.35
2023-01-29T19:18:43.980Z,2.55
2023-01-29T19:21:14.215Z,3.05
2023-01-29T19:23:43.117Z,2.95
2023-01-29T19:26:11.673Z,2.67
2023-01-29T19:28:39.579Z,2.47
2023-01-29T19:31:07.482Z,2.20
2023-01-29T19:33:35.618Z,2.65
2023-01-29T19:36:03.549Z,2.08
2023-01-29T19:38:33.675Z,2.47
2023-01-29T19:41:01.824Z,2.40
2023-01-29T19:43:33.375Z,2.80
2023-01-29T19:46:02.243Z,2.50
2023-01-29T19:48:30.542Z,2.25
2023-01-29T19:51:00.476Z,2.58
2023-01-29T19:53:29.763Z,3.28
2023-01-29T19:56:02.420Z,2.08
2023-01-29T19:58:33.082Z,2.20
2023-01-29T20:01:20.827Z,2.38
2023-01-29T20:03:49.669Z,2.20
2023-01-29T20:06:22.965Z,3.35
2023-01-29T20:08:54.130Z,8.57
2023-01-29T20:11:23.277Z,12.45
2023-01-29T20:13:52.194Z,16.95
2023-01-29T20:16:20.772Z,19.08
2023-01-29T20:18:48.786Z,23.95
2023-01-29T20:21:20.633Z,26.08
2023-01-29T20:23:52.029Z,24.75
2023-01-29T20:26:20.337Z,25.05
2023-01-29T20:28:51.406Z,26.83
2023-01-29T20:31:21.971Z,23.40
2023-01-29T20:33:49.786Z,23.92
2023-01-29T20:36:20.958Z,21.27
2023-01-29T20:38:48.867Z,18.15
2023-01-29T20:41:18.762Z,16.40
2023-01-29T20:43:49.173Z,14.90
2023-01-29T20:46:17.443Z,12.13
2023-01-29T20:48:45.703Z,11.20
2023-01-29T20:51:16.782Z,11.55
2023-01-29T20:53:46.480Z,11.77
2023-01-29T20:56:32.170Z,12.48
2023-01-29T20:59:06.554Z,13.57
2023-01-29T21:01:34.374Z,13.50
2023-01-29T21:04:02.194Z,12.00
2023-01-29T21:06:30.076Z,10.80
2023-01-29T21:08:57.983Z,10.77
2023-01-29T21:11:26.511Z,12.43
2023-01-29T21:13:57.769Z,10.85
2023-01-29T21:16:29.307Z,8.80
2023-01-29T21:19:00.529Z,8.60
2023-01-29T21:21:31.403Z,9.32
2023-01-29T21:24:01.563Z,7.40
2023-01-29T21:26:29.359Z,8.02
2023-01-29T21:28:57.532Z,7.38
2023-01-29T21:31:25.318Z,7.18
2023-01-29T21:33:53.302Z,6.72
2023-01-29T21:36:21.095Z,6.63
2023-01-29T21:38:48.872Z,5.43
2023-01-29T21:41:16.633Z,5.03
2023-01-29T21:43:45.697Z,5.13
2023-01-29T21:46:16.295Z,5.25
2023-01-29T21:48:44.337Z,4.68
2023-01-29T21:51:12.256Z,4.47
2023-01-29T21:53:40.133Z,4.80
2023-01-29T21:56:07.943Z,4.30
2023-01-29T21:58:35.823Z,3.72
2023-01-29T22:01:36.077Z,3.70
2023-01-29T22:03:51.222Z,4.38
2023-01-29T22:06:19.094Z,4.15
2023-01-29T22:08:48.493Z,3.67
2023-01-29T22:11:16.500Z,3.75
2023-01-29T22:13:44.238Z,3.90
2023-01-29T22:16:12.072Z,2.85
2023-01-29T22:18:39.753Z,3.40
2023-01-29T22:21:07.474Z,3.63
2023-01-29T22:23:35.513Z,3.40
2023-01-29T22:26:07.463Z,3.33
2023-01-29T22:28:35.522Z,3.65
2023-01-29T22:31:04.095Z,4.63
2023-01-29T22:33:35.440Z,3.88
2023-01-29T22:36:03.715Z,3.65
2023-01-29T22:38:32.068Z,4.13
2023-01-29T22:41:01.011Z,4.45
2023-01-29T22:43:29.526Z,4.75
2023-01-29T22:45:57.574Z,5.13
2023-01-29T22:48:25.916Z,5.78
2023-01-29T22:51:10.109Z,4.45
2023-01-29T22:53:39.561Z,4.50
2023-01-29T22:56:08.098Z,4.65
2023-01-29T22:58:36.288Z,4.38
2023-01-29T23:01:04.736Z,5.00
2023-01-29T23:03:32.674Z,3.92
2023-01-29T23:06:01.037Z,3.85
2023-01-29T23:08:29.039Z,3.65
2023-01-29T23:11:14.381Z,3.38
2023-01-29T23:13:47.780Z,3.90
2023-01-29T23:16:17.145Z,4.00
2023-01-29T23:18:45.870Z,3.85
2023-01-29T23:21:13.944Z,3.67
2023-01-29T23:23:44.066Z,3.78
2023-01-29T23:26:31.876Z,3.90
2023-01-29T23:29:00.436Z,3.65
2023-01-29T23:31:28.468Z,3.15
2023-01-29T23:33:56.642Z,3.50
2023-01-29T23:36:27.208Z,3.70
2023-01-29T23:38:55.269Z,3.63
2023-01-29T23:41:23.186Z,3.92
2023-01-29T23:43:52.894Z,3.42
2023-01-29T23:46:21.413Z,2.88
2023-01-29T23:48:49.264Z,3.47
2023-01-29T23:51:17.166Z,3.50
2023-01-29T23:53:44.836Z,3.25
2023-01-29T23:56:15.807Z,3.60
2023-01-29T23:58:44.190Z,3.35
